sensor_id;sensor_type;location;lat;lon;timestamp;pressure;altitude;pressure_sealevel;temperature;humidity
8320;BME280;4197;42.130;24.746;2023-02-20T00:01:46;99631.56;;;14.16;48.81
8320;BME280;4197;42.130;24.746;2023-02-20T00:04:14;99642.09;;;14.18;48.63
8320;BME280;4197;42.130;24.746;2023-02-20T00:06:43;99646.34;;;14.15;48.89
8320;BME280;4197;42.130;24.746;2023-02-20T00:09:12;99649.44;;;14.14;49.01
8320;BME280;4197;42.130;24.746;2023-02-20T00:11:42;99651.72;;;14.08;48.92
8320;BME280;4197;42.130;24.746;2023-02-20T00:14:10;99648.59;;;14.06;49.06
8320;BME280;4197;42.130;24.746;2023-02-20T00:16:38;99657.44;;;13.99;49.50
8320;BME280;4197;42.130;24.746;2023-02-20T00:19:06;99653.91;;;13.95;49.65
8320;BME280;4197;42.130;24.746;2023-02-20T00:21:34;99669.44;;;13.91;49.59
8320;BME280;4197;42.130;24.746;2023-02-20T00:24:04;99670.53;;;13.87;50.06
8320;BME280;4197;42.130;24.746;2023-02-20T00:26:33;99674.78;;;13.84;50.13
8320;BME280;4197;42.130;24.746;2023-02-20T00:29:01;99673.09;;;13.72;50.71
8320;BME280;4197;42.130;24.746;2023-02-20T00:31:29;99672.53;;;13.59;51.12
8320;BME280;4197;42.130;24.746;2023-02-20T00:33:57;99671.16;;;13.46;51.27
8320;BME280;4197;42.130;24.746;2023-02-20T00:36:25;99669.91;;;13.40;51.70
8320;BME280;4197;42.130;24.746;2023-02-20T00:38:53;99678.78;;;13.33;51.87
8320;BME280;4197;42.130;24.746;2023-02-20T00:41:23;99670.03;;;13.24;52.06
8320;BME280;4197;42.130;24.746;2023-02-20T00:43:51;99665.81;;;13.27;51.98
8320;BME280;4197;42.130;24.746;2023-02-20T00:46:19;99664.97;;;13.23;52.24
8320;BME280;4197;42.130;24.746;2023-02-20T00:48:47;99661.59;;;13.29;52.12
8320;BME280;4197;42.130;24.746;2023-02-20T00:51:16;99660.25;;;13.20;52.47
8320;BME280;4197;42.130;24.746;2023-02-20T00:53:45;99660.59;;;13.18;52.19
8320;BME280;4197;42.130;24.746;2023-02-20T00:56:13;99660.66;;;13.22;52.53
8320;BME280;4197;42.130;24.746;2023-02-20T00:58:43;99652.88;;;13.20;52.02
8320;BME280;4197;42.130;24.746;2023-02-20T01:01:11;99667.03;;;13.29;51.52
8320;BME280;4197;42.130;24.746;2023-02-20T01:03:40;99642.81;;;13.24;51.68
8320;BME280;4197;42.130;24.746;2023-02-20T01:06:09;99643.75;;;13.35;51.51
8320;BME280;4197;42.130;24.746;2023-02-20T01:08:37;99644.56;;;13.36;51.37
8320;BME280;4197;42.130;24.746;2023-02-20T01:11:06;99650.34;;;13.31;51.66
8320;BME280;4197;42.130;24.746;2023-02-20T01:13:34;99650.38;;;13.34;51.49
8320;BME280;4197;42.130;24.746;2023-02-20T01:16:04;99657.00;;;13.33;51.45
8320;BME280;4197;42.130;24.746;2023-02-20T01:18:32;99657.72;;;13.30;51.65
8320;BME280;4197;42.130;24.746;2023-02-20T01:21:00;99659.63;;;13.30;51.46
8320;BME280;4197;42.130;24.746;2023-02-20T01:23:28;99665.50;;;13.32;51.23
8320;BME280;4197;42.130;24.746;2023-02-20T01:25:56;99674.06;;;13.30;51.32
8320;BME280;4197;42.130;24.746;2023-02-20T01:28:24;99665.41;;;13.25;51.80
8320;BME280;4197;42.130;24.746;2023-02-20T01:30:52;99663.03;;;13.23;51.65
8320;BME280;4197;42.130;24.746;2023-02-20T01:33:22;99655.22;;;13.22;51.62
8320;BME280;4197;42.130;24.746;2023-02-20T01:35:50;99665.31;;;13.21;51.93
8320;BME280;4197;42.130;24.746;2023-02-20T01:38:18;99660.66;;;13.22;51.92
8320;BME280;4197;42.130;24.746;2023-02-20T01:40:48;99669.22;;;13.20;52.12
8320;BME280;4197;42.130;24.746;2023-02-20T01:43:16;99670.66;;;13.14;52.30
8320;BME280;4197;42.130;24.746;2023-02-20T01:45:44;99670.59;;;13.10;52.17
8320;BME280;4197;42.130;24.746;2023-02-20T01:48:20;99670.94;;;13.05;52.63
8320;BME280;4197;42.130;24.746;2023-02-20T01:50:52;99677.06;;;13.02;52.67
8320;BME280;4197;42.130;24.746;2023-02-20T01:53:24;99671.53;;;12.95;52.88
8320;BME280;4197;42.130;24.746;2023-02-20T01:55:57;99678.06;;;12.90;53.50
8320;BME280;4197;42.130;24.746;2023-02-20T01:58:28;99673.34;;;12.87;53.53
8320;BME280;4197;42.130;24.746;2023-02-20T02:00:59;99677.53;;;12.81;53.63
8320;BME280;4197;42.130;24.746;2023-02-20T02:03:30;99686.00;;;12.76;54.09
8320;BME280;4197;42.130;24.746;2023-02-20T02:06:04;99680.50;;;12.72;53.97
8320;BME280;4197;42.130;24.746;2023-02-20T02:08:35;99678.06;;;12.67;54.07
8320;BME280;4197;42.130;24.746;2023-02-20T02:11:07;99676.41;;;12.63;54.75
8320;BME280;4197;42.130;24.746;2023-02-20T02:13:37;99695.75;;;12.58;54.67
8320;BME280;4197;42.130;24.746;2023-02-20T02:16:13;99709.16;;;12.47;55.19
8320;BME280;4197;42.130;24.746;2023-02-20T02:18:51;99716.13;;;12.44;55.51
8320;BME280;4197;42.130;24.746;2023-02-20T02:24:52;99702.94;;;12.27;56.41
8320;BME280;4197;42.130;24.746;2023-02-20T02:31:08;99709.28;;;12.12;57.21
8320;BME280;4197;42.130;24.746;2023-02-20T02:34:07;99714.97;;;12.07;57.60
8320;BME280;4197;42.130;24.746;2023-02-20T02:36:51;99715.75;;;12.07;57.67
8320;BME280;4197;42.130;24.746;2023-02-20T02:39:26;99720.41;;;12.07;57.96
8320;BME280;4197;42.130;24.746;2023-02-20T02:41:57;99724.69;;;12.08;57.98
8320;BME280;4197;42.130;24.746;2023-02-20T02:44:36;99736.44;;;12.12;57.95
8320;BME280;4197;42.130;24.746;2023-02-20T02:47:12;99731.16;;;12.19;58.19
8320;BME280;4197;42.130;24.746;2023-02-20T02:49:47;99726.16;;;12.21;58.05
8320;BME280;4197;42.130;24.746;2023-02-20T02:52:19;99743.75;;;12.27;57.87
8320;BME280;4197;42.130;24.746;2023-02-20T02:55:02;99746.47;;;12.27;58.10
8320;BME280;4197;42.130;24.746;2023-02-20T02:57:30;99753.50;;;12.28;57.99
8320;BME280;4197;42.130;24.746;2023-02-20T03:00:02;99757.72;;;12.25;58.17
8320;BME280;4197;42.130;24.746;2023-02-20T03:02:34;99770.03;;;12.19;58.46
8320;BME280;4197;42.130;24.746;2023-02-20T03:05:08;99764.03;;;12.14;58.97
8320;BME280;4197;42.130;24.746;2023-02-20T03:07:40;99773.56;;;12.04;59.69
8320;BME280;4197;42.130;24.746;2023-02-20T03:10:13;99771.50;;;11.97;59.76
8320;BME280;4197;42.130;24.746;2023-02-20T03:12:48;99772.88;;;11.91;60.57
8320;BME280;4197;42.130;24.746;2023-02-20T03:15:24;99763.88;;;11.87;60.51
8320;BME280;4197;42.130;24.746;2023-02-20T03:18:09;99766.94;;;11.86;60.98
8320;BME280;4197;42.130;24.746;2023-02-20T03:20:41;99771.13;;;11.83;60.91
8320;BME280;4197;42.130;24.746;2023-02-20T03:23:16;99779.28;;;11.83;61.50
8320;BME280;4197;42.130;24.746;2023-02-20T03:25:48;99791.28;;;11.82;61.66
8320;BME280;4197;42.130;24.746;2023-02-20T03:28:20;99793.28;;;11.85;61.71
8320;BME280;4197;42.130;24.746;2023-02-20T03:30:54;99785.69;;;11.91;61.71
8320;BME280;4197;42.130;24.746;2023-02-20T03:33:27;99781.84;;;11.92;61.42
8320;BME280;4197;42.130;24.746;2023-02-20T03:36:18;99785.69;;;11.91;61.75
8320;BME280;4197;42.130;24.746;2023-02-20T03:39:12;99793.41;;;11.89;61.67
8320;BME280;4197;42.130;24.746;2023-02-20T03:42:01;99794.00;;;11.82;61.78
8320;BME280;4197;42.130;24.746;2023-02-20T03:44:48;99795.44;;;11.76;62.14
8320;BME280;4197;42.130;24.746;2023-02-20T03:47:17;99802.69;;;11.72;62.61
8320;BME280;4197;42.130;24.746;2023-02-20T03:49:49;99805.78;;;11.70;62.26
8320;BME280;4197;42.130;24.746;2023-02-20T03:52:20;99815.41;;;11.68;62.57
8320;BME280;4197;42.130;24.746;2023-02-20T03:54:51;99814.19;;;11.65;62.87
8320;BME280;4197;42.130;24.746;2023-02-20T03:57:23;99819.34;;;11.70;62.79
8320;BME280;4197;42.130;24.746;2023-02-20T03:59:55;99822.53;;;11.72;62.64
8320;BME280;4197;42.130;24.746;2023-02-20T04:02:28;99822.94;;;11.74;62.46
8320;BME280;4197;42.130;24.746;2023-02-20T04:05:01;99826.88;;;11.77;62.73
8320;BME280;4197;42.130;24.746;2023-02-20T04:07:35;99828.56;;;11.81;62.83
8320;BME280;4197;42.130;24.746;2023-02-20T04:10:10;99837.16;;;11.83;63.01
8320;BME280;4197;42.130;24.746;2023-02-20T04:12:42;99835.91;;;11.81;62.65
8320;BME280;4197;42.130;24.746;2023-02-20T04:15:11;99825.84;;;11.81;62.94
8320;BME280;4197;42.130;24.746;2023-02-20T04:17:44;99838.91;;;11.76;63.39
8320;BME280;4197;42.130;24.746;2023-02-20T04:20:14;99841.09;;;11.70;63.55
8320;BME280;4197;42.130;24.746;2023-02-20T04:22:45;99835.66;;;11.70;63.62
8320;BME280;4197;42.130;24.746;2023-02-20T04:25:21;99828.47;;;11.62;63.96
8320;BME280;4197;42.130;24.746;2023-02-20T04:27:54;99832.94;;;11.54;64.26
8320;BME280;4197;42.130;24.746;2023-02-20T04:30:22;99832.06;;;11.50;64.37
8320;BME280;4197;42.130;24.746;2023-02-20T04:32:50;99825.75;;;11.46;64.35
8320;BME280;4197;42.130;24.746;2023-02-20T04:35:19;99828.97;;;11.36;64.29
8320;BME280;4197;42.130;24.746;2023-02-20T04:37:47;99836.72;;;11.34;64.33
8320;BME280;4197;42.130;24.746;2023-02-20T04:40:19;99831.09;;;11.27;64.39
8320;BME280;4197;42.130;24.746;2023-02-20T04:42:50;99835.78;;;11.14;64.58
8320;BME280;4197;42.130;24.746;2023-02-20T04:45:18;99819.41;;;11.10;65.13
8320;BME280;4197;42.130;24.746;2023-02-20T04:47:46;99828.97;;;11.04;65.45
8320;BME280;4197;42.130;24.746;2023-02-20T04:50:18;99836.47;;;10.95;66.12
8320;BME280;4197;42.130;24.746;2023-02-20T04:52:47;99834.88;;;10.94;65.32
8320;BME280;4197;42.130;24.746;2023-02-20T04:55:17;99833.31;;;10.93;64.52
8320;BME280;4197;42.130;24.746;2023-02-20T04:57:46;99832.28;;;10.98;63.55
8320;BME280;4197;42.130;24.746;2023-02-20T05:00:15;99839.97;;;10.96;63.39
8320;BME280;4197;42.130;24.746;2023-02-20T05:02:44;99845.03;;;10.97;62.82
8320;BME280;4197;42.130;24.746;2023-02-20T05:05:16;99847.41;;;10.99;62.41
8320;BME280;4197;42.130;24.746;2023-02-20T05:07:45;99843.13;;;10.98;62.31
8320;BME280;4197;42.130;24.746;2023-02-20T05:10:14;99842.00;;;10.99;61.95
8320;BME280;4197;42.130;24.746;2023-02-20T05:12:44;99843.13;;;10.98;61.54
8320;BME280;4197;42.130;24.746;2023-02-20T05:15:13;99844.63;;;10.95;61.87
8320;BME280;4197;42.130;24.746;2023-02-20T05:17:42;99847.47;;;10.86;62.28
8320;BME280;4197;42.130;24.746;2023-02-20T05:20:11;99846.50;;;10.79;62.10
8320;BME280;4197;42.130;24.746;2023-02-20T05:22:40;99841.31;;;10.74;62.63
8320;BME280;4197;42.130;24.746;2023-02-20T05:25:07;99850.13;;;10.70;62.31
8320;BME280;4197;42.130;24.746;2023-02-20T05:27:36;99851.25;;;10.69;62.22
8320;BME280;4197;42.130;24.746;2023-02-20T05:30:07;99865.25;;;10.71;62.01
8320;BME280;4197;42.130;24.746;2023-02-20T05:32:36;99861.53;;;10.76;61.49
8320;BME280;4197;42.130;24.746;2023-02-20T05:35:05;99882.63;;;10.83;60.67
8320;BME280;4197;42.130;24.746;2023-02-20T05:37:33;99877.66;;;10.85;60.17
8320;BME280;4197;42.130;24.746;2023-02-20T05:40:01;99890.97;;;10.90;60.54
8320;BME280;4197;42.130;24.746;2023-02-20T05:42:31;99898.19;;;10.98;59.89
8320;BME280;4197;42.130;24.746;2023-02-20T05:45:03;99902.69;;;11.06;59.11
8320;BME280;4197;42.130;24.746;2023-02-20T05:47:33;99902.78;;;11.10;58.57
8320;BME280;4197;42.130;24.746;2023-02-20T05:50:04;99904.00;;;11.12;58.24
8320;BME280;4197;42.130;24.746;2023-02-20T05:52:33;99906.03;;;11.15;58.44
8320;BME280;4197;42.130;24.746;2023-02-20T05:55:01;99913.47;;;11.19;58.16
8320;BME280;4197;42.130;24.746;2023-02-20T05:57:29;99931.25;;;11.16;57.82
8320;BME280;4197;42.130;24.746;2023-02-20T05:59:57;99939.91;;;11.22;57.64
8320;BME280;4197;42.130;24.746;2023-02-20T06:02:25;99948.44;;;11.20;57.82
8320;BME280;4197;42.130;24.746;2023-02-20T06:04:55;99946.13;;;11.22;57.42
8320;BME280;4197;42.130;24.746;2023-02-20T06:07:23;99941.94;;;11.25;56.98
8320;BME280;4197;42.130;24.746;2023-02-20T06:09:51;99941.59;;;11.26;56.90
8320;BME280;4197;42.130;24.746;2023-02-20T06:12:23;99957.91;;;11.26;56.97
8320;BME280;4197;42.130;24.746;2023-02-20T06:14:51;99959.91;;;11.29;56.54
8320;BME280;4197;42.130;24.746;2023-02-20T06:17:19;99959.59;;;11.31;56.61
8320;BME280;4197;42.130;24.746;2023-02-20T06:19:48;99972.47;;;11.34;56.67
8320;BME280;4197;42.130;24.746;2023-02-20T06:22:19;99973.69;;;11.36;56.39
8320;BME280;4197;42.130;24.746;2023-02-20T06:24:47;99977.66;;;11.39;55.83
8320;BME280;4197;42.130;24.746;2023-02-20T06:27:16;99978.84;;;11.42;55.59
8320;BME280;4197;42.130;24.746;2023-02-20T06:29:45;99985.97;;;11.46;55.30
8320;BME280;4197;42.130;24.746;2023-02-20T06:32:15;99991.16;;;11.51;54.59
8320;BME280;4197;42.130;24.746;2023-02-20T06:34:43;99992.94;;;11.59;54.03
8320;BME280;4197;42.130;24.746;2023-02-20T06:37:12;100004.34;;;11.65;53.75
8320;BME280;4197;42.130;24.746;2023-02-20T06:39:42;100009.63;;;11.74;52.76
8320;BME280;4197;42.130;24.746;2023-02-20T06:42:12;99991.91;;;11.80;52.49
8320;BME280;4197;42.130;24.746;2023-02-20T06:44:41;99987.50;;;11.88;51.69
8320;BME280;4197;42.130;24.746;2023-02-20T06:47:09;99984.53;;;11.93;51.54
8320;BME280;4197;42.130;24.746;2023-02-20T06:49:37;99989.78;;;12.01;51.32
8320;BME280;4197;42.130;24.746;2023-02-20T06:52:07;99982.06;;;12.03;51.51
8320;BME280;4197;42.130;24.746;2023-02-20T06:54:36;99985.75;;;12.11;50.98
8320;BME280;4197;42.130;24.746;2023-02-20T06:57:05;99984.16;;;12.10;51.50
8320;BME280;4197;42.130;24.746;2023-02-20T06:59:34;99975.22;;;12.10;51.69
8320;BME280;4197;42.130;24.746;2023-02-20T07:02:09;99970.25;;;12.12;51.75
8320;BME280;4197;42.130;24.746;2023-02-20T07:04:38;99966.88;;;12.18;51.57
8320;BME280;4197;42.130;24.746;2023-02-20T07:07:07;99965.84;;;12.23;51.58
8320;BME280;4197;42.130;24.746;2023-02-20T07:09:35;99974.16;;;12.30;51.56
8320;BME280;4197;42.130;24.746;2023-02-20T07:12:05;99960.28;;;12.35;50.84
8320;BME280;4197;42.130;24.746;2023-02-20T07:14:33;99972.06;;;12.39;50.76
8320;BME280;4197;42.130;24.746;2023-02-20T07:17:01;99967.22;;;12.48;50.65
8320;BME280;4197;42.130;24.746;2023-02-20T07:19:29;99972.13;;;12.59;50.51
8320;BME280;4197;42.130;24.746;2023-02-20T07:21:58;99977.28;;;12.64;50.21
8320;BME280;4197;42.130;24.746;2023-02-20T07:24:26;99967.97;;;12.65;50.04
8320;BME280;4197;42.130;24.746;2023-02-20T07:26:55;99975.22;;;12.77;49.54
8320;BME280;4197;42.130;24.746;2023-02-20T07:29:24;99972.56;;;12.80;48.60
8320;BME280;4197;42.130;24.746;2023-02-20T07:31:53;99983.56;;;12.84;47.48
8320;BME280;4197;42.130;24.746;2023-02-20T07:34:21;99972.00;;;12.90;46.88
8320;BME280;4197;42.130;24.746;2023-02-20T07:36:49;99986.13;;;12.96;46.36
8320;BME280;4197;42.130;24.746;2023-02-20T07:39:17;99992.47;;;13.00;46.03
8320;BME280;4197;42.130;24.746;2023-02-20T07:41:49;99985.84;;;13.01;45.11
8320;BME280;4197;42.130;24.746;2023-02-20T07:44:17;99994.03;;;13.01;44.05
8320;BME280;4197;42.130;24.746;2023-02-20T07:46:47;99991.88;;;13.10;44.19
8320;BME280;4197;42.130;24.746;2023-02-20T07:49:15;99982.66;;;13.15;44.27
8320;BME280;4197;42.130;24.746;2023-02-20T07:51:43;99972.69;;;13.23;43.68
8320;BME280;4197;42.130;24.746;2023-02-20T07:54:12;99979.44;;;13.29;43.53
8320;BME280;4197;42.130;24.746;2023-02-20T07:56:40;99977.44;;;13.26;43.17
8320;BME280;4197;42.130;24.746;2023-02-20T07:59:08;99982.53;;;13.27;42.53
8320;BME280;4197;42.130;24.746;2023-02-20T08:01:37;99975.50;;;13.26;42.31
8320;BME280;4197;42.130;24.746;2023-02-20T08:04:06;99977.56;;;13.33;41.98
8320;BME280;4197;42.130;24.746;2023-02-20T08:06:35;99956.00;;;13.44;41.69
8320;BME280;4197;42.130;24.746;2023-02-20T08:09:05;99971.41;;;13.55;41.13
8320;BME280;4197;42.130;24.746;2023-02-20T08:11:35;99960.44;;;13.52;40.74
8320;BME280;4197;42.130;24.746;2023-02-20T08:14:04;99963.16;;;13.52;40.93
8320;BME280;4197;42.130;24.746;2023-02-20T08:16:33;99966.81;;;13.59;40.97
8320;BME280;4197;42.130;24.746;2023-02-20T08:19:01;99967.72;;;13.67;40.49
8320;BME280;4197;42.130;24.746;2023-02-20T08:21:32;99962.03;;;13.76;40.13
8320;BME280;4197;42.130;24.746;2023-02-20T08:24:00;99960.22;;;13.83;39.46
8320;BME280;4197;42.130;24.746;2023-02-20T08:26:28;99972.06;;;13.91;38.74
8320;BME280;4197;42.130;24.746;2023-02-20T08:28:57;99967.88;;;13.97;37.74
8320;BME280;4197;42.130;24.746;2023-02-20T08:31:25;99983.44;;;13.97;37.42
8320;BME280;4197;42.130;24.746;2023-02-20T08:33:58;99974.69;;;13.88;37.17
8320;BME280;4197;42.130;24.746;2023-02-20T08:36:27;99959.06;;;13.84;37.08
8320;BME280;4197;42.130;24.746;2023-02-20T08:38:56;99961.50;;;13.90;37.23
8320;BME280;4197;42.130;24.746;2023-02-20T08:41:26;99954.53;;;13.92;36.83
8320;BME280;4197;42.130;24.746;2023-02-20T08:43:54;99954.63;;;13.99;36.10
8320;BME280;4197;42.130;24.746;2023-02-20T08:46:22;99936.28;;;13.96;35.89
8320;BME280;4197;42.130;24.746;2023-02-20T08:48:51;99935.31;;;14.08;36.11
8320;BME280;4197;42.130;24.746;2023-02-20T08:51:19;99947.91;;;14.16;35.82
8320;BME280;4197;42.130;24.746;2023-02-20T08:53:48;99965.84;;;14.17;35.72
8320;BME280;4197;42.130;24.746;2023-02-20T08:56:19;99931.22;;;14.21;35.88
8320;BME280;4197;42.130;24.746;2023-02-20T08:58:47;99945.09;;;14.36;35.71
8320;BME280;4197;42.130;24.746;2023-02-20T09:01:16;99958.09;;;14.46;35.11
8320;BME280;4197;42.130;24.746;2023-02-20T09:03:44;99949.28;;;14.53;34.41
8320;BME280;4197;42.130;24.746;2023-02-20T09:06:12;99962.53;;;14.54;33.69
8320;BME280;4197;42.130;24.746;2023-02-20T09:08:41;99970.72;;;14.54;33.16
8320;BME280;4197;42.130;24.746;2023-02-20T09:11:09;99972.03;;;14.64;32.75
8320;BME280;4197;42.130;24.746;2023-02-20T09:13:42;99978.31;;;14.68;31.42
8320;BME280;4197;42.130;24.746;2023-02-20T09:16:10;99978.44;;;14.75;30.61
8320;BME280;4197;42.130;24.746;2023-02-20T09:18:39;99988.66;;;14.82;31.05
8320;BME280;4197;42.130;24.746;2023-02-20T09:21:08;99979.22;;;14.76;30.63
8320;BME280;4197;42.130;24.746;2023-02-20T09:23:37;99991.03;;;14.83;30.74
8320;BME280;4197;42.130;24.746;2023-02-20T09:26:05;99994.16;;;14.85;30.36
8320;BME280;4197;42.130;24.746;2023-02-20T09:28:34;99990.25;;;14.83;29.57
8320;BME280;4197;42.130;24.746;2023-02-20T09:31:03;99993.81;;;14.87;29.97
8320;BME280;4197;42.130;24.746;2023-02-20T09:33:32;99982.13;;;14.90;29.20
8320;BME280;4197;42.130;24.746;2023-02-20T09:36:00;99982.09;;;14.86;28.32
8320;BME280;4197;42.130;24.746;2023-02-20T09:38:28;99978.59;;;14.86;29.13
8320;BME280;4197;42.130;24.746;2023-02-20T09:40:59;99971.97;;;14.87;29.40
8320;BME280;4197;42.130;24.746;2023-02-20T09:43:38;99982.56;;;14.92;29.05
8320;BME280;4197;42.130;24.746;2023-02-20T09:46:15;99973.22;;;14.93;28.09
8320;BME280;4197;42.130;24.746;2023-02-20T09:48:58;99978.34;;;14.98;27.09
8320;BME280;4197;42.130;24.746;2023-02-20T09:51:34;99964.63;;;14.91;27.20
8320;BME280;4197;42.130;24.746;2023-02-20T09:54:07;99968.91;;;14.92;26.16
8320;BME280;4197;42.130;24.746;2023-02-20T09:56:43;99944.00;;;14.97;25.96
8320;BME280;4197;42.130;24.746;2023-02-20T09:59:16;99969.00;;;14.99;24.09
8320;BME280;4197;42.130;24.746;2023-02-20T10:01:52;99945.56;;;14.98;23.80
8320;BME280;4197;42.130;24.746;2023-02-20T10:04:25;99946.88;;;15.08;23.54
8320;BME280;4197;42.130;24.746;2023-02-20T10:07:03;99939.53;;;15.15;23.60
8320;BME280;4197;42.130;24.746;2023-02-20T10:09:36;99936.94;;;15.26;23.64
8320;BME280;4197;42.130;24.746;2023-02-20T10:12:09;99952.00;;;15.13;24.16
8320;BME280;4197;42.130;24.746;2023-02-20T10:14:51;99935.28;;;15.18;24.25
8320;BME280;4197;42.130;24.746;2023-02-20T10:17:36;99943.19;;;15.27;23.01
8320;BME280;4197;42.130;24.746;2023-02-20T10:20:10;99955.25;;;15.22;22.76
8320;BME280;4197;42.130;24.746;2023-02-20T10:22:48;99947.72;;;15.15;22.97
8320;BME280;4197;42.130;24.746;2023-02-20T10:25:24;99927.94;;;15.26;22.96
8320;BME280;4197;42.130;24.746;2023-02-20T10:28:00;99941.16;;;15.20;22.37
8320;BME280;4197;42.130;24.746;2023-02-20T10:30:32;99953.38;;;15.30;21.98
8320;BME280;4197;42.130;24.746;2023-02-20T10:33:13;99952.31;;;15.38;22.20
8320;BME280;4197;42.130;24.746;2023-02-20T10:35:46;99942.50;;;15.37;22.56
8320;BME280;4197;42.130;24.746;2023-02-20T10:38:19;99946.44;;;15.39;23.02
8320;BME280;4197;42.130;24.746;2023-02-20T10:40:52;99956.00;;;15.56;22.74
8320;BME280;4197;42.130;24.746;2023-02-20T10:43:24;99939.38;;;15.69;22.60
8320;BME280;4197;42.130;24.746;2023-02-20T10:46:04;99940.56;;;15.71;22.56
8320;BME280;4197;42.130;24.746;2023-02-20T10:48:40;99947.88;;;15.64;22.24
8320;BME280;4197;42.130;24.746;2023-02-20T10:51:14;99941.13;;;15.54;22.41
8320;BME280;4197;42.130;24.746;2023-02-20T10:53:47;99941.22;;;15.61;22.41
8320;BME280;4197;42.130;24.746;2023-02-20T10:56:20;99953.69;;;15.58;22.46
8320;BME280;4197;42.130;24.746;2023-02-20T10:58:56;99936.50;;;15.58;22.48
8320;BME280;4197;42.130;24.746;2023-02-20T11:01:26;99944.84;;;15.72;22.53
8320;BME280;4197;42.130;24.746;2023-02-20T11:04:00;99949.94;;;15.74;22.48
8320;BME280;4197;42.130;24.746;2023-02-20T11:06:33;99942.41;;;15.64;22.91
8320;BME280;4197;42.130;24.746;2023-02-20T11:09:04;99938.63;;;15.75;22.22
8320;BME280;4197;42.130;24.746;2023-02-20T11:11:35;99921.00;;;15.69;22.21
8320;BME280;4197;42.130;24.746;2023-02-20T11:14:11;99920.75;;;15.85;22.27
8320;BME280;4197;42.130;24.746;2023-02-20T11:16:43;99906.38;;;15.95;21.83
8320;BME280;4197;42.130;24.746;2023-02-20T11:19:22;99928.56;;;15.87;22.37
8320;BME280;4197;42.130;24.746;2023-02-20T11:21:51;99931.63;;;15.78;22.01
8320;BME280;4197;42.130;24.746;2023-02-20T11:24:30;99919.94;;;15.81;21.87
8320;BME280;4197;42.130;24.746;2023-02-20T11:27:02;99914.47;;;15.81;21.92
8320;BME280;4197;42.130;24.746;2023-02-20T11:29:39;99914.56;;;15.95;21.85
8320;BME280;4197;42.130;24.746;2023-02-20T11:32:25;99925.97;;;16.01;21.95
8320;BME280;4197;42.130;24.746;2023-02-20T11:35:05;99915.44;;;16.03;21.18
8320;BME280;4197;42.130;24.746;2023-02-20T11:37:38;99918.50;;;15.94;21.48
8320;BME280;4197;42.130;24.746;2023-02-20T11:40:24;99928.66;;;15.97;21.64
8320;BME280;4197;42.130;24.746;2023-02-20T11:42:54;99920.41;;;15.90;21.85
8320;BME280;4197;42.130;24.746;2023-02-20T11:45:24;99925.97;;;16.04;21.73
8320;BME280;4197;42.130;24.746;2023-02-20T11:48:06;99936.97;;;16.08;21.89
8320;BME280;4197;42.130;24.746;2023-02-20T11:50:42;99927.56;;;16.05;22.15
8320;BME280;4197;42.130;24.746;2023-02-20T11:53:21;99918.50;;;15.98;22.13
8320;BME280;4197;42.130;24.746;2023-02-20T11:56:06;99923.63;;;15.99;22.40
8320;BME280;4197;42.130;24.746;2023-02-20T11:58:35;99923.25;;;16.04;22.29
8320;BME280;4197;42.130;24.746;2023-02-20T12:01:04;99925.59;;;16.02;22.53
8320;BME280;4197;42.130;24.746;2023-02-20T12:03:33;99931.06;;;16.02;22.48
8320;BME280;4197;42.130;24.746;2023-02-20T12:06:34;99922.94;;;16.13;22.32
8320;BME280;4197;42.130;24.746;2023-02-20T12:09:10;99918.34;;;16.28;22.47
8320;BME280;4197;42.130;24.746;2023-02-20T12:11:41;99926.63;;;16.35;21.58
8320;BME280;4197;42.130;24.746;2023-02-20T12:14:13;99930.47;;;16.31;21.90
8320;BME280;4197;42.130;24.746;2023-02-20T12:16:55;99920.75;;;16.37;21.98
8320;BME280;4197;42.130;24.746;2023-02-20T12:19:34;99923.91;;;16.42;21.87
8320;BME280;4197;42.130;24.746;2023-02-20T12:22:15;99931.69;;;16.37;22.01
8320;BME280;4197;42.130;24.746;2023-02-20T12:24:57;99928.50;;;16.24;22.12
8320;BME280;4197;42.130;24.746;2023-02-20T12:27:41;99922.69;;;16.33;21.92
8320;BME280;4197;42.130;24.746;2023-02-20T12:30:24;99918.69;;;16.23;21.66
8320;BME280;4197;42.130;24.746;2023-02-20T12:33:04;99912.88;;;16.28;21.93
8320;BME280;4197;42.130;24.746;2023-02-20T12:35:50;99918.34;;;16.28;22.08
8320;BME280;4197;42.130;24.746;2023-02-20T12:38:31;99917.13;;;16.22;21.86
8320;BME280;4197;42.130;24.746;2023-02-20T12:41:18;99913.25;;;16.26;21.95
8320;BME280;4197;42.130;24.746;2023-02-20T12:43:57;99906.59;;;16.24;22.55
8320;BME280;4197;42.130;24.746;2023-02-20T12:46:47;99913.31;;;16.37;22.44
8320;BME280;4197;42.130;24.746;2023-02-20T12:49:32;99912.19;;;16.42;22.23
8320;BME280;4197;42.130;24.746;2023-02-20T12:52:15;99918.34;;;16.32;22.14
8320;BME280;4197;42.130;24.746;2023-02-20T12:54:57;99905.88;;;16.38;22.49
8320;BME280;4197;42.130;24.746;2023-02-20T12:57:34;99911.41;;;16.41;22.63
8320;BME280;4197;42.130;24.746;2023-02-20T13:00:21;99896.53;;;16.39;22.73
8320;BME280;4197;42.130;24.746;2023-02-20T13:02:57;99903.53;;;16.33;23.02
8320;BME280;4197;42.130;24.746;2023-02-20T13:05:27;99911.00;;;16.39;22.71
8320;BME280;4197;42.130;24.746;2023-02-20T13:08:02;99908.63;;;16.38;22.87
8320;BME280;4197;42.130;24.746;2023-02-20T13:10:44;99896.16;;;16.44;22.78
8320;BME280;4197;42.130;24.746;2023-02-20T13:13:15;99900.06;;;16.43;23.05
8320;BME280;4197;42.130;24.746;2023-02-20T13:15:50;99891.06;;;16.42;22.97
8320;BME280;4197;42.130;24.746;2023-02-20T13:18:28;99901.97;;;16.35;22.50
8320;BME280;4197;42.130;24.746;2023-02-20T13:21:01;99904.69;;;16.32;22.45
8320;BME280;4197;42.130;24.746;2023-02-20T13:23:33;99907.06;;;16.37;22.15
8320;BME280;4197;42.130;24.746;2023-02-20T13:26:43;99899.97;;;16.32;22.48
8320;BME280;4197;42.130;24.746;2023-02-20T13:29:14;99902.78;;;16.39;22.79
8320;BME280;4197;42.130;24.746;2023-02-20T13:31:46;99910.19;;;16.35;22.58
8320;BME280;4197;42.130;24.746;2023-02-20T13:34:31;99926.19;;;16.33;22.42
8320;BME280;4197;42.130;24.746;2023-02-20T13:37:01;99916.38;;;16.28;22.97
8320;BME280;4197;42.130;24.746;2023-02-20T13:39:39;99921.88;;;16.32;22.81
8320;BME280;4197;42.130;24.746;2023-02-20T13:42:33;99934.84;;;16.42;22.67
8320;BME280;4197;42.130;24.746;2023-02-20T13:45:35;99926.19;;;16.33;22.14